sensor_id;sensor_type;location;lat;lon;timestamp;P1;durP1;ratioP1;P2;durP2;ratioP2
58768;SDS011;44536;47.474;19.056;2023-04-01T00:00:00;6.70;;;2.50;;
58768;SDS011;44536;47.474;19.056;2023-04-01T00:03:12;5.57;;;1.70;;
58768;SDS011;44536;47.474;19.056;2023-04-01T00:06:16;3.70;;;1.80;;
58768;SDS011;44536;47.474;19.056;2023-04-01T00:09:19;4.93;;;1.92;;
58768;SDS011;44536;47.474;19.056;2023-04-01T00:12:22;9.10;;;3.47;;
58768;SDS011;44536;47.474;19.056;2023-04-01T00:15:26;5.03;;;2.10;;
58768;SDS011;44536;47.474;19.056;2023-04-01T00:18:29;6.53;;;3.12;;
58768;SDS011;44536;47.474;19.056;2023-04-01T00:21:32;4.35;;;2.30;;
58768;SDS011;44536;47.474;19.056;2023-04-01T00:24:35;5.53;;;2.37;;
58768;SDS011;44536;47.474;19.056;2023-04-01T00:27:37;6.40;;;3.03;;
58768;SDS011;44536;47.474;19.056;2023-04-01T00:30:40;6.28;;;3.00;;
58768;SDS011;44536;47.474;19.056;2023-04-01T00:33:42;5.85;;;2.47;;
58768;SDS011;44536;47.474;19.056;2023-04-01T00:36:45;6.80;;;2.67;;
58768;SDS011;44536;47.474;19.056;2023-04-01T00:39:47;5.18;;;2.58;;
58768;SDS011;44536;47.474;19.056;2023-04-01T00:42:50;6.65;;;2.95;;
58768;SDS011;44536;47.474;19.056;2023-04-01T00:45:53;6.30;;;3.00;;
58768;SDS011;44536;47.474;19.056;2023-04-01T00:48:55;7.85;;;2.62;;
58768;SDS011;44536;47.474;19.056;2023-04-01T00:51:59;7.30;;;3.23;;
58768;SDS011;44536;47.474;19.056;2023-04-01T00:55:03;6.55;;;2.95;;
58768;SDS011;44536;47.474;19.056;2023-04-01T00:58:11;7.25;;;2.67;;
58768;SDS011;44536;47.474;19.056;2023-04-01T01:01:18;6.32;;;2.53;;
58768;SDS011;44536;47.474;19.056;2023-04-01T01:04:28;4.87;;;2.33;;
58768;SDS011;44536;47.474;19.056;2023-04-01T01:10:43;7.90;;;3.40;;
58768;SDS011;44536;47.474;19.056;2023-04-01T01:27:47;6.10;;;2.35;;
58768;SDS011;44536;47.474;19.056;2023-04-01T01:31:12;5.45;;;2.37;;
58768;SDS011;44536;47.474;19.056;2023-04-01T01:34:40;5.05;;;2.53;;
58768;SDS011;44536;47.474;19.056;2023-04-01T01:37:55;7.18;;;3.50;;
58768;SDS011;44536;47.474;19.056;2023-04-01T01:41:02;5.57;;;2.80;;
58768;SDS011;44536;47.474;19.056;2023-04-01T01:44:07;6.80;;;3.05;;
58768;SDS011;44536;47.474;19.056;2023-04-01T01:47:13;5.03;;;2.25;;
58768;SDS011;44536;47.474;19.056;2023-04-01T01:50:17;7.22;;;2.95;;
58768;SDS011;44536;47.474;19.056;2023-04-01T01:53:21;7.62;;;2.78;;
58768;SDS011;44536;47.474;19.056;2023-04-01T01:56:25;5.72;;;2.40;;
58768;SDS011;44536;47.474;19.056;2023-04-01T01:59:30;6.20;;;2.70;;
58768;SDS011;44536;47.474;19.056;2023-04-01T02:02:35;7.15;;;2.92;;
58768;SDS011;44536;47.474;19.056;2023-04-01T02:05:38;6.72;;;2.95;;
58768;SDS011;44536;47.474;19.056;2023-04-01T02:11:56;5.90;;;2.35;;
58768;SDS011;44536;47.474;19.056;2023-04-01T02:15:08;4.87;;;2.37;;
58768;SDS011;44536;47.474;19.056;2023-04-01T02:18:14;6.45;;;2.53;;
58768;SDS011;44536;47.474;19.056;2023-04-01T02:21:18;8.15;;;3.28;;
58768;SDS011;44536;47.474;19.056;2023-04-01T02:24:24;6.82;;;2.65;;
58768;SDS011;44536;47.474;19.056;2023-04-01T02:27:30;4.78;;;2.30;;
58768;SDS011;44536;47.474;19.056;2023-04-01T02:30:34;5.32;;;2.55;;
58768;SDS011;44536;47.474;19.056;2023-04-01T02:33:38;7.50;;;2.80;;
58768;SDS011;44536;47.474;19.056;2023-04-01T02:36:41;6.78;;;2.15;;
58768;SDS011;44536;47.474;19.056;2023-04-01T02:39:44;5.70;;;2.00;;
58768;SDS011;44536;47.474;19.056;2023-04-01T02:42:47;4.10;;;1.60;;
58768;SDS011;44536;47.474;19.056;2023-04-01T02:45:49;4.05;;;1.40;;
58768;SDS011;44536;47.474;19.056;2023-04-01T02:48:52;3.53;;;1.10;;
58768;SDS011;44536;47.474;19.056;2023-04-01T02:51:55;4.00;;;1.33;;
58768;SDS011;44536;47.474;19.056;2023-04-01T02:54:58;2.10;;;0.80;;
58768;SDS011;44536;47.474;19.056;2023-04-01T02:58:00;4.53;;;1.40;;
58768;SDS011;44536;47.474;19.056;2023-04-01T03:01:03;4.35;;;1.27;;
58768;SDS011;44536;47.474;19.056;2023-04-01T03:04:06;3.53;;;1.30;;
58768;SDS011;44536;47.474;19.056;2023-04-01T03:07:08;4.05;;;1.27;;
58768;SDS011;44536;47.474;19.056;2023-04-01T03:13:14;5.18;;;1.40;;
58768;SDS011;44536;47.474;19.056;2023-04-01T03:16:17;2.95;;;0.90;;
58768;SDS011;44536;47.474;19.056;2023-04-01T03:19:19;4.85;;;1.67;;
58768;SDS011;44536;47.474;19.056;2023-04-01T03:22:22;3.27;;;1.67;;
58768;SDS011;44536;47.474;19.056;2023-04-01T03:25:24;3.70;;;1.20;;
58768;SDS011;44536;47.474;19.056;2023-04-01T03:28:27;2.78;;;1.30;;
58768;SDS011;44536;47.474;19.056;2023-04-01T03:31:29;3.10;;;1.00;;
58768;SDS011;44536;47.474;19.056;2023-04-01T03:34:32;2.90;;;1.40;;
58768;SDS011;44536;47.474;19.056;2023-04-01T03:37:34;2.75;;;1.10;;
58768;SDS011;44536;47.474;19.056;2023-04-01T03:40:37;2.90;;;1.10;;
58768;SDS011;44536;47.474;19.056;2023-04-01T03:43:43;2.17;;;0.93;;
58768;SDS011;44536;47.474;19.056;2023-04-01T03:46:46;4.00;;;1.35;;
58768;SDS011;44536;47.474;19.056;2023-04-01T03:49:49;3.60;;;1.17;;
58768;SDS011;44536;47.474;19.056;2023-04-01T03:52:52;3.80;;;1.30;;
58768;SDS011;44536;47.474;19.056;2023-04-01T03:55:54;4.15;;;1.15;;
58768;SDS011;44536;47.474;19.056;2023-04-01T03:58:58;3.12;;;1.20;;
58768;SDS011;44536;47.474;19.056;2023-04-01T04:02:00;3.72;;;0.90;;
58768;SDS011;44536;47.474;19.056;2023-04-01T04:05:03;3.95;;;1.25;;
58768;SDS011;44536;47.474;19.056;2023-04-01T04:08:07;2.62;;;1.02;;
58768;SDS011;44536;47.474;19.056;2023-04-01T04:11:10;3.17;;;1.08;;
58768;SDS011;44536;47.474;19.056;2023-04-01T04:14:13;3.78;;;1.30;;
58768;SDS011;44536;47.474;19.056;2023-04-01T04:17:15;2.10;;;1.03;;
58768;SDS011;44536;47.474;19.056;2023-04-01T04:20:18;3.45;;;1.17;;
58768;SDS011;44536;47.474;19.056;2023-04-01T04:23:21;5.65;;;1.30;;
58768;SDS011;44536;47.474;19.056;2023-04-01T04:26:23;4.22;;;1.40;;
58768;SDS011;44536;47.474;19.056;2023-04-01T04:29:26;3.58;;;1.48;;
58768;SDS011;44536;47.474;19.056;2023-04-01T04:32:29;3.87;;;1.05;;
58768;SDS011;44536;47.474;19.056;2023-04-01T04:35:32;2.92;;;1.00;;
58768;SDS011;44536;47.474;19.056;2023-04-01T04:38:35;2.47;;;1.30;;
58768;SDS011;44536;47.474;19.056;2023-04-01T04:41:38;3.33;;;1.10;;
58768;SDS011;44536;47.474;19.056;2023-04-01T04:44:40;3.45;;;1.17;;
58768;SDS011;44536;47.474;19.056;2023-04-01T04:47:43;3.45;;;1.40;;
58768;SDS011;44536;47.474;19.056;2023-04-01T04:50:50;3.37;;;1.23;;
58768;SDS011;44536;47.474;19.056;2023-04-01T04:53:53;4.53;;;1.17;;
58768;SDS011;44536;47.474;19.056;2023-04-01T04:56:56;3.42;;;0.80;;
58768;SDS011;44536;47.474;19.056;2023-04-01T04:59:59;2.35;;;1.08;;
58768;SDS011;44536;47.474;19.056;2023-04-01T05:03:03;3.10;;;1.10;;
58768;SDS011;44536;47.474;19.056;2023-04-01T05:06:07;3.17;;;1.20;;
58768;SDS011;44536;47.474;19.056;2023-04-01T05:09:11;4.72;;;1.58;;
58768;SDS011;44536;47.474;19.056;2023-04-01T05:12:14;4.22;;;1.17;;
58768;SDS011;44536;47.474;19.056;2023-04-01T05:15:19;2.15;;;1.05;;
58768;SDS011;44536;47.474;19.056;2023-04-01T05:18:22;4.78;;;1.48;;
58768;SDS011;44536;47.474;19.056;2023-04-01T05:21:24;2.50;;;0.90;;
58768;SDS011;44536;47.474;19.056;2023-04-01T05:24:27;2.12;;;1.02;;
58768;SDS011;44536;47.474;19.056;2023-04-01T05:27:29;2.83;;;1.12;;
58768;SDS011;44536;47.474;19.056;2023-04-01T05:30:32;2.80;;;1.37;;
58768;SDS011;44536;47.474;19.056;2023-04-01T05:33:35;2.80;;;1.10;;
58768;SDS011;44536;47.474;19.056;2023-04-01T05:36:38;4.95;;;1.00;;
58768;SDS011;44536;47.474;19.056;2023-04-01T05:39:41;2.35;;;1.05;;
58768;SDS011;44536;47.474;19.056;2023-04-01T05:42:44;1.98;;;0.80;;
58768;SDS011;44536;47.474;19.056;2023-04-01T05:45:47;1.92;;;1.23;;
58768;SDS011;44536;47.474;19.056;2023-04-01T05:48:54;2.65;;;0.88;;
58768;SDS011;44536;47.474;19.056;2023-04-01T05:51:57;5.15;;;1.40;;
58768;SDS011;44536;47.474;19.056;2023-04-01T05:55:00;4.82;;;1.75;;
58768;SDS011;44536;47.474;19.056;2023-04-01T05:58:02;2.97;;;0.95;;
58768;SDS011;44536;47.474;19.056;2023-04-01T06:01:06;3.37;;;0.82;;
58768;SDS011;44536;47.474;19.056;2023-04-01T06:04:17;3.30;;;1.17;;
58768;SDS011;44536;47.474;19.056;2023-04-01T06:07:20;2.30;;;1.00;;
58768;SDS011;44536;47.474;19.056;2023-04-01T06:10:35;2.42;;;0.93;;
58768;SDS011;44536;47.474;19.056;2023-04-01T06:27:46;4.03;;;1.20;;
58768;SDS011;44536;47.474;19.056;2023-04-01T06:34:58;2.75;;;0.98;;
58768;SDS011;44536;47.474;19.056;2023-04-01T06:38:19;2.62;;;0.85;;
58768;SDS011;44536;47.474;19.056;2023-04-01T06:44:56;2.15;;;0.88;;
58768;SDS011;44536;47.474;19.056;2023-04-01T06:58:37;2.78;;;0.80;;
58768;SDS011;44536;47.474;19.056;2023-04-01T07:05:20;2.95;;;1.52;;
58768;SDS011;44536;47.474;19.056;2023-04-01T07:08:25;2.47;;;0.88;;
58768;SDS011;44536;47.474;19.056;2023-04-01T07:11:33;2.87;;;0.73;;
58768;SDS011;44536;47.474;19.056;2023-04-01T07:14:41;1.52;;;0.85;;
58768;SDS011;44536;47.474;19.056;2023-04-01T07:17:45;3.37;;;0.90;;
58768;SDS011;44536;47.474;19.056;2023-04-01T07:20:54;4.85;;;1.08;;
58768;SDS011;44536;47.474;19.056;2023-04-01T07:23:59;1.83;;;0.90;;
58768;SDS011;44536;47.474;19.056;2023-04-01T07:27:10;3.08;;;1.00;;
58768;SDS011;44536;47.474;19.056;2023-04-01T07:30:19;2.72;;;1.08;;
58768;SDS011;44536;47.474;19.056;2023-04-01T07:36:42;2.67;;;1.00;;
58768;SDS011;44536;47.474;19.056;2023-04-01T07:40:06;3.30;;;1.00;;
58768;SDS011;44536;47.474;19.056;2023-04-01T07:43:30;1.87;;;0.75;;
58768;SDS011;44536;47.474;19.056;2023-04-01T07:50:22;2.15;;;0.75;;
58768;SDS011;44536;47.474;19.056;2023-04-01T07:53:32;2.08;;;0.80;;
58768;SDS011;44536;47.474;19.056;2023-04-01T07:57:19;2.08;;;0.95;;
58768;SDS011;44536;47.474;19.056;2023-04-01T08:00:27;2.45;;;0.80;;
58768;SDS011;44536;47.474;19.056;2023-04-01T08:07:31;0.95;;;0.57;;
58768;SDS011;44536;47.474;19.056;2023-04-01T08:18:16;2.97;;;0.85;;
58768;SDS011;44536;47.474;19.056;2023-04-01T08:21:45;5.37;;;0.90;;
58768;SDS011;44536;47.474;19.056;2023-04-01T08:24:53;2.17;;;0.90;;
58768;SDS011;44536;47.474;19.056;2023-04-01T08:28:16;3.50;;;1.05;;
58768;SDS011;44536;47.474;19.056;2023-04-01T08:31:47;3.42;;;1.23;;
58768;SDS011;44536;47.474;19.056;2023-04-01T08:38:32;3.03;;;0.82;;
58768;SDS011;44536;47.474;19.056;2023-04-01T08:41:53;2.75;;;0.98;;
58768;SDS011;44536;47.474;19.056;2023-04-01T08:48:22;2.58;;;0.70;;
58768;SDS011;44536;47.474;19.056;2023-04-01T09:04:37;2.25;;;0.90;;
58768;SDS011;44536;47.474;19.056;2023-04-01T09:15:32;4.65;;;1.00;;
58768;SDS011;44536;47.474;19.056;2023-04-01T09:19:16;2.03;;;1.52;;
58768;SDS011;44536;47.474;19.056;2023-04-01T09:33:23;2.47;;;0.75;;
58768;SDS011;44536;47.474;19.056;2023-04-01T09:36:45;3.30;;;1.08;;
58768;SDS011;44536;47.474;19.056;2023-04-01T09:43:39;3.00;;;1.02;;
58768;SDS011;44536;47.474;19.056;2023-04-01T09:47:10;4.05;;;1.45;;
58768;SDS011;44536;47.474;19.056;2023-04-01T09:50:35;3.53;;;1.12;;
58768;SDS011;44536;47.474;19.056;2023-04-01T09:57:03;2.40;;;0.88;;
58768;SDS011;44536;47.474;19.056;2023-04-01T10:20:31;4.60;;;1.33;;
58768;SDS011;44536;47.474;19.056;2023-04-01T10:24:05;2.75;;;1.48;;
58768;SDS011;44536;47.474;19.056;2023-04-01T10:34:35;4.15;;;1.25;;
58768;SDS011;44536;47.474;19.056;2023-04-01T10:42:25;4.93;;;1.73;;
58768;SDS011;44536;47.474;19.056;2023-04-01T10:48:57;3.58;;;1.50;;
58768;SDS011;44536;47.474;19.056;2023-04-01T10:56:32;5.65;;;1.55;;
58768;SDS011;44536;47.474;19.056;2023-04-01T11:20:10;2.33;;;1.02;;
58768;SDS011;44536;47.474;19.056;2023-04-01T11:23:37;4.32;;;0.88;;
58768;SDS011;44536;47.474;19.056;2023-04-01T11:44:11;4.00;;;2.03;;
58768;SDS011;44536;47.474;19.056;2023-04-01T11:47:27;3.42;;;1.10;;
58768;SDS011;44536;47.474;19.056;2023-04-01T12:17:39;3.87;;;0.80;;
58768;SDS011;44536;47.474;19.056;2023-04-01T12:20:54;2.62;;;0.90;;
58768;SDS011;44536;47.474;19.056;2023-04-01T12:24:32;3.45;;;0.95;;
58768;SDS011;44536;47.474;19.056;2023-04-01T12:45:27;1.80;;;0.68;;
58768;SDS011;44536;47.474;19.056;2023-04-01T12:52:11;5.12;;;1.00;;
58768;SDS011;44536;47.474;19.056;2023-04-01T12:55:41;2.47;;;0.90;;
58768;SDS011;44536;47.474;19.056;2023-04-01T13:15:26;3.78;;;1.25;;
58768;SDS011;44536;47.474;19.056;2023-04-01T13:21:50;3.00;;;1.00;;
58768;SDS011;44536;47.474;19.056;2023-04-01T13:25:13;4.35;;;1.00;;
58768;SDS011;44536;47.474;19.056;2023-04-01T13:28:52;3.50;;;1.10;;
58768;SDS011;44536;47.474;19.056;2023-04-01T13:35:23;3.65;;;1.17;;
58768;SDS011;44536;47.474;19.056;2023-04-01T13:52:12;4.75;;;1.50;;
58768;SDS011;44536;47.474;19.056;2023-04-01T13:58:38;2.83;;;0.80;;
58768;SDS011;44536;47.474;19.056;2023-04-01T14:01:50;1.45;;;0.70;;
58768;SDS011;44536;47.474;19.056;2023-04-01T14:15:25;2.30;;;0.80;;
58768;SDS011;44536;47.474;19.056;2023-04-01T14:22:56;2.17;;;0.90;;
58768;SDS011;44536;47.474;19.056;2023-04-01T14:29:10;1.23;;;0.57;;
58768;SDS011;44536;47.474;19.056;2023-04-01T14:56:02;1.30;;;0.60;;
58768;SDS011;44536;47.474;19.056;2023-04-01T14:59:08;1.92;;;0.90;;
58768;SDS011;44536;47.474;19.056;2023-04-01T15:02:18;2.08;;;1.15;;
58768;SDS011;44536;47.474;19.056;2023-04-01T15:05:49;5.12;;;1.60;;
58768;SDS011;44536;47.474;19.056;2023-04-01T15:12:48;5.00;;;1.75;;
58768;SDS011;44536;47.474;19.056;2023-04-01T15:22:40;4.22;;;1.50;;
58768;SDS011;44536;47.474;19.056;2023-04-01T15:34:05;5.05;;;1.92;;
58768;SDS011;44536;47.474;19.056;2023-04-01T15:40:16;3.78;;;1.08;;
58768;SDS011;44536;47.474;19.056;2023-04-01T15:46:56;3.35;;;0.93;;
58768;SDS011;44536;47.474;19.056;2023-04-01T16:03:39;2.33;;;1.10;;
58768;SDS011;44536;47.474;19.056;2023-04-01T16:06:51;3.47;;;0.80;;
58768;SDS011;44536;47.474;19.056;2023-04-01T16:27:27;1.73;;;0.60;;
58768;SDS011;44536;47.474;19.056;2023-04-01T16:30:40;4.32;;;1.33;;
58768;SDS011;44536;47.474;19.056;2023-04-01T16:40:27;1.85;;;0.80;;
58768;SDS011;44536;47.474;19.056;2023-04-01T16:43:55;1.95;;;0.52;;
58768;SDS011;44536;47.474;19.056;2023-04-01T16:47:09;2.45;;;0.70;;
58768;SDS011;44536;47.474;19.056;2023-04-01T16:54:00;1.45;;;0.40;;
58768;SDS011;44536;47.474;19.056;2023-04-01T16:56:56;1.02;;;0.65;;
58768;SDS011;44536;47.474;19.056;2023-04-01T17:03:26;1.48;;;0.55;;
58768;SDS011;44536;47.474;19.056;2023-04-01T17:06:39;2.25;;;0.82;;
58768;SDS011;44536;47.474;19.056;2023-04-01T17:13:28;2.45;;;0.90;;
58768;SDS011;44536;47.474;19.056;2023-04-01T17:16:50;1.95;;;0.75;;
58768;SDS011;44536;47.474;19.056;2023-04-01T17:20:19;2.67;;;0.80;;
58768;SDS011;44536;47.474;19.056;2023-04-01T17:23:51;2.28;;;1.17;;
58768;SDS011;44536;47.474;19.056;2023-04-01T17:27:25;3.85;;;1.10;;
58768;SDS011;44536;47.474;19.056;2023-04-01T17:37:28;1.27;;;0.70;;
58768;SDS011;44536;47.474;19.056;2023-04-01T17:51:29;4.68;;;1.55;;
58768;SDS011;44536;47.474;19.056;2023-04-01T18:11:59;3.95;;;1.60;;
58768;SDS011;44536;47.474;19.056;2023-04-01T18:22:34;3.83;;;1.27;;
58768;SDS011;44536;47.474;19.056;2023-04-01T18:25:41;4.87;;;1.30;;
58768;SDS011;44536;47.474;19.056;2023-04-01T18:28:52;4.25;;;1.90;;
58768;SDS011;44536;47.474;19.056;2023-04-01T18:32:07;3.90;;;1.10;;
58768;SDS011;44536;47.474;19.056;2023-04-01T18:38:31;5.32;;;1.85;;
58768;SDS011;44536;47.474;19.056;2023-04-01T18:41:51;5.37;;;1.73;;
58768;SDS011;44536;47.474;19.056;2023-04-01T18:52:03;5.37;;;1.85;;
58768;SDS011;44536;47.474;19.056;2023-04-01T18:55:21;6.78;;;1.85;;
58768;SDS011;44536;47.474;19.056;2023-04-01T18:58:46;4.55;;;1.83;;
58768;SDS011;44536;47.474;19.056;2023-04-01T19:02:08;5.50;;;1.95;;
58768;SDS011;44536;47.474;19.056;2023-04-01T19:05:17;3.97;;;1.42;;
58768;SDS011;44536;47.474;19.056;2023-04-01T19:08:32;5.07;;;2.20;;
58768;SDS011;44536;47.474;19.056;2023-04-01T19:11:50;4.68;;;1.40;;
58768;SDS011;44536;47.474;19.056;2023-04-01T19:21:44;3.37;;;1.23;;
58768;SDS011;44536;47.474;19.056;2023-04-01T19:32:01;4.22;;;1.75;;
58768;SDS011;44536;47.474;19.056;2023-04-01T19:38:36;3.30;;;1.33;;
58768;SDS011;44536;47.474;19.056;2023-04-01T19:45:25;6.15;;;2.25;;
58768;SDS011;44536;47.474;19.056;2023-04-01T19:55:40;5.57;;;3.28;;
58768;SDS011;44536;47.474;19.056;2023-04-01T19:59:01;7.15;;;3.08;;
58768;SDS011;44536;47.474;19.056;2023-04-01T20:09:46;8.18;;;3.72;;
58768;SDS011;44536;47.474;19.056;2023-04-01T20:16:12;8.30;;;4.05;;
58768;SDS011;44536;47.474;19.056;2023-04-01T20:19:23;9.43;;;4.10;;
58768;SDS011;44536;47.474;19.056;2023-04-01T20:22:53;8.27;;;4.12;;
58768;SDS011;44536;47.474;19.056;2023-04-01T20:26:05;7.55;;;4.22;;
58768;SDS011;44536;47.474;19.056;2023-04-01T20:32:58;7.75;;;4.28;;
58768;SDS011;44536;47.474;19.056;2023-04-01T20:36:22;9.90;;;5.22;;
58768;SDS011;44536;47.474;19.056;2023-04-01T20:39:54;8.65;;;4.18;;
58768;SDS011;44536;47.474;19.056;2023-04-01T20:53:03;11.35;;;5.45;;
58768;SDS011;44536;47.474;19.056;2023-04-01T21:19:55;10.40;;;5.62;;
58768;SDS011;44536;47.474;19.056;2023-04-01T21:29:56;10.45;;;5.28;;
58768;SDS011;44536;47.474;19.056;2023-04-01T21:43:39;9.45;;;4.65;;
58768;SDS011;44536;47.474;19.056;2023-04-01T21:53:35;7.20;;;4.12;;
58768;SDS011;44536;47.474;19.056;2023-04-01T22:13:23;6.25;;;2.67;;
58768;SDS011;44536;47.474;19.056;2023-04-01T22:19:54;6.68;;;2.87;;
58768;SDS011;44536;47.474;19.056;2023-04-01T22:26:27;6.25;;;2.95;;
58768;SDS011;44536;47.474;19.056;2023-04-01T22:33:12;5.90;;;3.00;;
58768;SDS011;44536;47.474;19.056;2023-04-01T22:43:00;6.87;;;2.62;;
58768;SDS011;44536;47.474;19.056;2023-04-01T22:49:41;3.95;;;1.85;;
58768;SDS011;44536;47.474;19.056;2023-04-01T22:52:50;4.15;;;2.17;;
58768;SDS011;44536;47.474;19.056;2023-04-01T22:56:01;5.40;;;2.25;;
58768;SDS011;44536;47.474;19.056;2023-04-01T22:59:17;3.53;;;1.52;;
58768;SDS011;44536;47.474;19.056;2023-04-01T23:02:28;5.70;;;1.05;;
58768;SDS011;44536;47.474;19.056;2023-04-01T23:05:39;3.58;;;1.33;;
58768;SDS011;44536;47.474;19.056;2023-04-01T23:08:54;1.95;;;0.80;;
58768;SDS011;44536;47.474;19.056;2023-04-01T23:12:00;1.35;;;0.60;;
58768;SDS011;44536;47.474;19.056;2023-04-01T23:15:10;2.75;;;1.00;;
58768;SDS011;44536;47.474;19.056;2023-04-01T23:18:26;3.08;;;0.75;;
58768;SDS011;44536;47.474;19.056;2023-04-01T23:21:41;1.60;;;0.73;;
58768;SDS011;44536;47.474;19.056;2023-04-01T23:24:53;1.90;;;0.80;;
58768;SDS011;44536;47.474;19.056;2023-04-01T23:31:34;1.73;;;0.80;;
58768;SDS011;44536;47.474;19.056;2023-04-01T23:34:39;0.70;;;0.57;;
58768;SDS011;44536;47.474;19.056;2023-04-01T23:37:47;2.17;;;0.75;;
58768;SDS011;44536;47.474;19.056;2023-04-01T23:40:51;1.67;;;0.70;;
58768;SDS011;44536;47.474;19.056;2023-04-01T23:43:57;1.55;;;0.75;;
58768;SDS011;44536;47.474;19.056;2023-04-01T23:47:03;1.42;;;0.80;;
58768;SDS011;44536;47.474;19.056;2023-04-01T23:50:14;3.70;;;1.00;;
58768;SDS011;44536;47.474;19.056;2023-04-01T23:53:21;3.03;;;1.43;;
58768;SDS011;44536;47.474;19.056;2023-04-01T23:56:43;2.65;;;1.25;;
